Time;durP1;ratioP1;P1;durP2;ratioP2;P2;SDS_P1;SDS_P2;PMS_P1;PMS_P2;Temp;Humidity;BMP_temperature;BMP_pressure;BME280_temperature;BME280_humidity;BME280_pressure;Samples;Min_cycle;Max_cycle;Signal;HPM_P1;HPM_P2
2023/12/17 00:00:52;;;;;;;1.30;1.20;;;13.50;70.10;;;;;;5089928;28;20042;-70
2023/12/17 00:03:18;;;;;;;0.70;0.70;;;13.50;70.00;;;;;;5089178;28;20028;-70
2023/12/17 00:05:43;;;;;;;0.85;0.77;;;13.50;70.00;;;;;;5082820;28;20435;-70
2023/12/17 00:08:09;;;;;;;2.17;1.70;;;13.50;70.10;;;;;;5087704;28;20036;-70
2023/12/17 00:10:34;;;;;;;2.08;1.30;;;13.50;69.90;;;;;;5088506;28;20092;-70
2023/12/17 00:13:00;;;;;;;1.05;1.05;;;13.50;69.90;;;;;;5090797;28;20044;-70
2023/12/17 00:15:25;;;;;;;1.05;1.05;;;13.50;69.80;;;;;;5085245;28;20035;-70
2023/12/17 00:17:51;;;;;;;0.75;0.75;;;13.50;69.90;;;;;;5088518;28;20032;-70
2023/12/17 00:20:17;;;;;;;1.45;1.35;;;13.40;70.10;;;;;;5092240;28;20016;-70
2023/12/17 00:22:42;;;;;;;1.00;1.00;;;13.50;70.10;;;;;;5095044;28;20020;-72
2023/12/17 00:25:08;;;;;;;0.50;0.50;;;13.50;70.20;;;;;;5091268;28;20126;-72
2023/12/17 00:27:34;;;;;;;0.90;0.90;;;13.50;70.30;;;;;;5092097;28;20441;-71
2023/12/17 00:29:59;;;;;;;0.80;0.80;;;13.50;70.40;;;;;;5092398;28;20063;-71
2023/12/17 00:32:25;;;;;;;1.17;1.10;;;13.50;70.30;;;;;;5092057;28;20032;-71
2023/12/17 00:34:50;;;;;;;3.03;0.82;;;13.40;70.30;;;;;;5091025;28;20398;-71
2023/12/17 00:37:15;;;;;;;1.58;1.00;;;13.40;70.20;;;;;;5090397;28;20020;-71
2023/12/17 00:39:41;;;;;;;1.23;1.23;;;13.40;70.30;;;;;;5094056;28;20055;-70
2023/12/17 00:42:06;;;;;;;0.75;0.75;;;13.40;70.40;;;;;;5092977;28;20475;-71
2023/12/17 00:44:32;;;;;;;0.85;0.85;;;13.40;70.40;;;;;;5092763;28;20032;-71
2023/12/17 00:46:59;;;;;;;1.23;1.15;;;13.40;70.40;;;;;;5094106;28;20036;-72
2023/12/17 00:49:25;;;;;;;0.80;0.80;;;13.40;70.40;;;;;;5075324;28;20069;-72
2023/12/17 00:51:50;;;;;;;1.30;0.93;;;13.40;70.40;;;;;;5093853;28;20119;-72
2023/12/17 00:54:16;;;;;;;1.40;1.30;;;13.40;70.30;;;;;;5092114;28;20028;-71
2023/12/17 00:56:41;;;;;;;0.75;0.75;;;13.40;70.40;;;;;;5095095;28;20047;-72
2023/12/17 00:59:07;;;;;;;0.70;0.70;;;13.40;70.40;;;;;;5074188;28;20024;-71
2023/12/17 01:01:32;;;;;;;0.70;0.70;;;13.40;70.50;;;;;;5094066;28;20068;-72
2023/12/17 01:03:58;;;;;;;0.85;0.85;;;13.40;70.60;;;;;;5092485;28;20028;-70
2023/12/17 01:06:23;;;;;;;0.77;0.77;;;13.40;70.50;;;;;;5092836;28;20575;-71
2023/12/17 01:08:49;;;;;;;0.80;0.80;;;13.40;70.50;;;;;;5094025;28;20036;-71
2023/12/17 01:11:14;;;;;;;0.80;0.80;;;13.40;70.60;;;;;;5088897;28;20044;-69
2023/12/17 01:13:40;;;;;;;0.65;0.65;;;13.50;70.20;;;;;;5070256;28;20543;-68
2023/12/17 01:16:06;;;;;;;1.52;1.38;;;13.40;70.40;;;;;;5087737;28;20044;-69
2023/12/17 01:18:32;;;;;;;0.68;0.68;;;13.40;70.40;;;;;;5070195;28;20052;-69
2023/12/17 01:21:00;;;;;;;0.60;0.60;;;13.40;70.40;;;;;;5057193;28;20506;-69
2023/12/17 01:23:25;;;;;;;1.13;1.02;;;13.40;70.40;;;;;;5070418;28;20044;-68
2023/12/17 01:25:51;;;;;;;0.43;0.43;;;13.40;70.60;;;;;;5086221;28;20418;-68
2023/12/17 01:28:17;;;;;;;1.38;1.27;;;13.40;70.60;;;;;;5088151;28;20028;-69
2023/12/17 01:30:43;;;;;;;1.17;1.05;;;13.40;70.60;;;;;;5083563;28;20036;-68
2023/12/17 01:33:08;;;;;;;1.73;1.55;;;13.40;70.70;;;;;;5088614;28;20040;-69
2023/12/17 01:35:34;;;;;;;0.63;0.63;;;13.40;70.50;;;;;;5084483;28;20494;-69
2023/12/17 01:37:59;;;;;;;1.75;0.90;;;13.40;70.60;;;;;;5092041;28;20024;-69
2023/12/17 01:40:25;;;;;;;0.70;0.70;;;13.40;70.70;;;;;;5070348;28;20507;-70
2023/12/17 01:42:53;;;;;;;0.88;0.88;;;13.50;70.50;;;;;;5092518;28;20036;-69
2023/12/17 01:45:19;;;;;;;1.13;0.95;;;13.40;70.70;;;;;;5092035;28;20030;-69
2023/12/17 01:47:45;;;;;;;1.45;1.33;;;13.50;70.60;;;;;;5076301;28;20032;-69
2023/12/17 01:50:11;;;;;;;0.77;0.77;;;13.50;70.60;;;;;;5079515;28;20088;-70
2023/12/17 01:52:38;;;;;;;0.98;0.98;;;13.50;70.60;;;;;;5066170;28;20463;-69
2023/12/17 01:55:05;;;;;;;0.88;0.88;;;13.40;70.50;;;;;;5083565;28;20379;-70
2023/12/17 01:57:31;;;;;;;0.90;0.90;;;13.50;70.60;;;;;;5084217;28;20035;-69
2023/12/17 01:59:57;;;;;;;0.70;0.70;;;13.40;70.60;;;;;;5075612;28;20024;-69
2023/12/17 02:02:23;;;;;;;1.10;1.05;;;13.50;70.70;;;;;;5073131;28;20692;-69
2023/12/17 02:04:50;;;;;;;1.17;1.13;;;13.40;70.70;;;;;;5085486;28;20107;-69
2023/12/17 02:07:16;;;;;;;0.60;0.60;;;13.40;70.70;;;;;;5077068;28;20379;-69
2023/12/17 02:09:42;;;;;;;0.60;0.60;;;13.40;70.80;;;;;;5091260;28;20032;-69
2023/12/17 02:12:07;;;;;;;1.17;1.08;;;13.40;70.90;;;;;;5080367;28;20037;-69
2023/12/17 02:14:33;;;;;;;0.50;0.50;;;13.40;70.80;;;;;;5072719;28;20025;-69
2023/12/17 02:16:58;;;;;;;1.27;1.13;;;13.40;70.70;;;;;;5086525;28;20066;-68
2023/12/17 02:19:24;;;;;;;0.60;0.60;;;13.30;70.90;;;;;;5082556;28;20039;-70
2023/12/17 02:21:49;;;;;;;1.45;1.30;;;13.40;70.80;;;;;;5076027;28;20024;-72
2023/12/17 02:24:15;;;;;;;1.20;0.88;;;13.40;70.90;;;;;;5075452;28;20031;-72
2023/12/17 02:26:41;;;;;;;0.80;0.80;;;13.40;70.90;;;;;;5086992;28;20036;-71
2023/12/17 02:29:07;;;;;;;2.22;0.80;;;13.40;71.00;;;;;;5083228;28;20020;-71
2023/12/17 02:31:32;;;;;;;1.00;1.00;;;13.40;70.90;;;;;;5078428;28;20094;-71
2023/12/17 02:33:58;;;;;;;1.33;1.20;;;13.40;70.90;;;;;;5068485;28;20140;-70
2023/12/17 02:36:24;;;;;;;0.90;0.90;;;13.40;70.90;;;;;;5089944;28;20020;-70
2023/12/17 02:38:49;;;;;;;1.00;1.00;;;13.40;70.90;;;;;;5063506;28;20116;-70
2023/12/17 02:41:15;;;;;;;0.50;0.50;;;13.50;70.90;;;;;;5081430;28;20028;-72
2023/12/17 02:43:40;;;;;;;3.53;1.05;;;13.40;71.00;;;;;;5077938;28;20399;-70
2023/12/17 02:46:06;;;;;;;0.95;0.95;;;13.50;71.00;;;;;;5074219;28;20031;-71
2023/12/17 02:48:33;;;;;;;1.48;1.35;;;13.50;71.00;;;;;;5084485;28;20130;-71
2023/12/17 02:50:58;;;;;;;0.70;0.70;;;13.50;71.00;;;;;;5090404;28;20028;-72
2023/12/17 02:53:24;;;;;;;0.90;0.90;;;13.50;70.90;;;;;;5095262;28;20039;-72
2023/12/17 02:55:49;;;;;;;0.50;0.50;;;13.50;71.00;;;;;;5088327;28;20041;-72
2023/12/17 02:58:15;;;;;;;1.65;1.20;;;13.50;71.00;;;;;;5089059;28;20028;-72
2023/12/17 03:00:40;;;;;;;0.80;0.80;;;13.50;71.20;;;;;;5095709;28;20035;-72
2023/12/17 03:03:06;;;;;;;0.73;0.73;;;13.50;71.00;;;;;;5093667;28;20245;-72
2023/12/17 03:05:31;;;;;;;0.88;0.88;;;13.50;71.10;;;;;;5093532;28;20517;-72
2023/12/17 03:07:57;;;;;;;0.65;0.65;;;13.50;71.20;;;;;;5086813;28;20038;-72
2023/12/17 03:10:22;;;;;;;0.75;0.75;;;13.50;71.10;;;;;;5080157;28;20020;-72
2023/12/17 03:12:48;;;;;;;0.68;0.68;;;13.50;71.00;;;;;;5090875;28;20028;-72
2023/12/17 03:15:13;;;;;;;0.77;0.77;;;13.50;71.10;;;;;;5100384;28;20032;-72
2023/12/17 03:17:39;;;;;;;1.20;1.00;;;13.50;71.10;;;;;;5088375;28;20036;-72
2023/12/17 03:20:05;;;;;;;0.88;0.88;;;13.50;71.20;;;;;;5087154;28;20076;-72
2023/12/17 03:22:31;;;;;;;0.88;0.88;;;13.50;71.10;;;;;;5095702;28;20050;-72
2023/12/17 03:24:57;;;;;;;0.57;0.57;;;13.50;71.00;;;;;;5100387;28;20020;-72
2023/12/17 03:27:23;;;;;;;2.30;1.13;;;13.50;71.10;;;;;;5089345;28;20125;-72
2023/12/17 03:29:48;;;;;;;0.60;0.60;;;13.50;71.20;;;;;;5094291;28;20036;-72
2023/12/17 03:32:15;;;;;;;0.93;0.93;;;13.50;71.10;;;;;;5066933;28;20029;-72
2023/12/17 03:34:40;;;;;;;0.90;0.90;;;13.50;71.10;;;;;;5083079;28;20088;-72
2023/12/17 03:37:06;;;;;;;0.68;0.68;;;13.50;71.00;;;;;;5097842;28;20059;-72
2023/12/17 03:39:31;;;;;;;1.27;0.98;;;13.50;71.00;;;;;;5098794;28;20111;-71
2023/12/17 03:41:57;;;;;;;1.08;1.02;;;13.50;71.20;;;;;;5091273;28;20036;-72
2023/12/17 03:44:22;;;;;;;1.27;1.17;;;13.50;71.00;;;;;;5078343;28;20031;-72
2023/12/17 03:46:48;;;;;;;0.95;0.77;;;13.50;71.00;;;;;;5086415;28;20039;-72
2023/12/17 03:49:13;;;;;;;0.60;0.60;;;13.50;71.10;;;;;;5085833;28;20063;-72
2023/12/17 03:51:39;;;;;;;8.75;0.95;;;13.50;71.10;;;;;;5079242;28;20040;-72
2023/12/17 03:54:04;;;;;;;0.70;0.70;;;13.50;71.10;;;;;;5086157;28;20023;-71
2023/12/17 03:56:30;;;;;;;0.80;0.80;;;13.60;71.20;;;;;;5076349;28;20056;-71
2023/12/17 03:58:55;;;;;;;1.38;1.27;;;13.60;71.10;;;;;;5092458;28;20024;-72
2023/12/17 04:01:20;;;;;;;0.77;0.77;;;13.60;71.20;;;;;;5096960;28;20044;-72
2023/12/17 04:03:46;;;;;;;1.25;0.90;;;13.60;71.20;;;;;;5091048;28;20103;-70
2023/12/17 04:06:11;;;;;;;1.02;0.90;;;13.70;70.90;;;;;;5090280;28;20138;-70
2023/12/17 04:08:37;;;;;;;0.90;0.88;;;13.60;71.00;;;;;;5076137;28;20384;-69
2023/12/17 04:11:02;;;;;;;0.95;0.95;;;13.60;71.10;;;;;;5086912;28;20036;-71
2023/12/17 04:13:28;;;;;;;0.40;0.40;;;13.60;71.10;;;;;;5093321;28;20451;-70
2023/12/17 04:15:53;;;;;;;0.90;0.90;;;13.60;71.30;;;;;;5070166;28;20070;-70
2023/12/17 04:18:19;;;;;;;0.52;0.52;;;13.70;71.20;;;;;;5078492;28;20017;-70
2023/12/17 04:20:45;;;;;;;0.80;0.80;;;13.70;71.20;;;;;;5076330;28;20024;-70
2023/12/17 04:23:10;;;;;;;1.05;0.80;;;13.70;71.30;;;;;;5081581;28;20059;-70
2023/12/17 04:25:36;;;;;;;1.85;1.73;;;13.70;71.20;;;;;;5058097;28;20448;-70
2023/12/17 04:28:01;;;;;;;1.70;1.42;;;13.70;70.90;;;;;;5073897;28;20032;-70
2023/12/17 04:30:27;;;;;;;0.95;0.95;;;13.70;70.90;;;;;;5074579;28;20024;-70
2023/12/17 04:32:52;;;;;;;0.70;0.70;;;13.70;71.20;;;;;;5076799;28;20032;-70
2023/12/17 04:35:18;;;;;;;3.25;2.13;;;13.70;71.10;;;;;;5081287;28;20166;-70
2023/12/17 04:37:43;;;;;;;1.23;1.13;;;13.70;71.10;;;;;;5078165;28;20021;-70
2023/12/17 04:40:10;;;;;;;1.38;1.30;;;13.70;71.10;;;;;;5076464;28;20492;-69
2023/12/17 04:42:35;;;;;;;0.60;0.60;;;13.70;71.10;;;;;;5076402;28;20031;-70
2023/12/17 04:45:01;;;;;;;0.82;0.82;;;13.70;71.00;;;;;;5076165;28;20029;-70
2023/12/17 04:47:27;;;;;;;0.70;0.70;;;13.70;71.00;;;;;;5075698;28;20047;-71
2023/12/17 04:49:52;;;;;;;0.85;0.85;;;13.70;71.00;;;;;;5075174;28;20032;-70
2023/12/17 04:52:18;;;;;;;0.50;0.50;;;13.70;71.10;;;;;;5074977;28;20039;-70
2023/12/17 04:54:43;;;;;;;0.95;0.95;;;13.70;71.20;;;;;;5074705;28;20028;-70
2023/12/17 04:57:09;;;;;;;0.50;0.50;;;13.70;71.10;;;;;;5074805;28;20108;-69
2023/12/17 04:59:34;;;;;;;1.13;1.02;;;13.70;71.20;;;;;;5056946;28;20234;-69
2023/12/17 05:02:00;;;;;;;1.45;1.35;;;13.70;71.20;;;;;;5057162;28;20074;-69
2023/12/17 05:04:25;;;;;;;0.70;0.70;;;13.70;71.10;;;;;;5074528;28;20701;-69
2023/12/17 05:06:50;;;;;;;1.00;1.00;;;13.70;71.10;;;;;;5086186;28;20044;-69
2023/12/17 05:09:16;;;;;;;0.77;0.70;;;13.70;71.20;;;;;;5079497;28;20399;-70
2023/12/17 05:11:41;;;;;;;0.55;0.55;;;13.70;71.20;;;;;;5094705;28;20111;-70
2023/12/17 05:14:07;;;;;;;0.70;0.70;;;13.80;71.40;;;;;;5098187;28;20032;-69
2023/12/17 05:16:32;;;;;;;4.47;1.70;;;13.80;71.20;;;;;;5098142;28;20040;-69
2023/12/17 05:18:58;;;;;;;0.65;0.65;;;13.80;71.00;;;;;;5097413;28;20028;-70
2023/12/17 05:21:23;;;;;;;0.70;0.70;;;13.80;71.10;;;;;;5097644;28;20028;-69
2023/12/17 05:23:49;;;;;;;0.98;0.98;;;13.80;71.20;;;;;;5086133;28;20039;-69
2023/12/17 05:26:14;;;;;;;0.60;0.60;;;13.80;71.30;;;;;;5090089;28;20029;-69
2023/12/17 05:28:41;;;;;;;0.82;0.82;;;13.80;71.20;;;;;;5092542;28;20032;-70
2023/12/17 05:31:07;;;;;;;1.60;1.48;;;13.80;71.20;;;;;;5097912;28;20028;-70
2023/12/17 05:33:32;;;;;;;0.93;0.93;;;13.80;71.10;;;;;;5096350;28;20034;-70
2023/12/17 05:35:58;;;;;;;0.95;0.95;;;13.80;71.20;;;;;;5095461;28;20462;-69
2023/12/17 05:38:28;;;;;;;0.93;0.88;;;13.80;71.20;;;;;;5096720;28;20071;-69
2023/12/17 05:40:56;;;;;;;0.47;0.47;;;13.80;71.40;;;;;;5097809;28;20032;-70
2023/12/17 05:43:22;;;;;;;0.60;0.60;;;13.80;71.20;;;;;;5097413;28;20028;-69
2023/12/17 05:45:47;;;;;;;2.58;1.15;;;13.80;71.00;;;;;;5097991;28;20033;-70
2023/12/17 05:48:14;;;;;;;1.95;1.27;;;13.80;71.00;;;;;;5097951;28;20059;-70
2023/12/17 05:50:40;;;;;;;5.28;1.70;;;13.80;71.10;;;;;;5097895;28;20032;-69
2023/12/17 05:53:06;;;;;;;1.17;1.08;;;13.80;70.90;;;;;;5098300;28;20428;-70
2023/12/17 05:55:31;;;;;;;12.90;1.58;;;13.80;71.00;;;;;;5081140;28;20028;-69
2023/12/17 05:57:56;;;;;;;1.38;1.27;;;13.80;71.00;;;;;;5099839;28;20087;-69
2023/12/17 06:00:22;;;;;;;0.80;0.80;;;13.80;71.00;;;;;;5098779;28;20386;-69
2023/12/17 06:02:47;;;;;;;0.75;0.75;;;13.80;70.90;;;;;;5098077;28;20046;-69
2023/12/17 06:05:13;;;;;;;1.23;1.13;;;13.80;71.00;;;;;;5098547;28;20031;-70
2023/12/17 06:07:38;;;;;;;1.25;1.17;;;13.80;71.00;;;;;;5096497;28;20028;-69
2023/12/17 06:10:04;;;;;;;0.65;0.65;;;13.80;70.90;;;;;;5098375;28;20069;-69
2023/12/17 06:12:30;;;;;;;0.57;0.57;;;13.80;71.20;;;;;;5098590;28;20044;-69
2023/12/17 06:14:55;;;;;;;0.57;0.57;;;13.80;71.10;;;;;;5081966;28;20025;-69
2023/12/17 06:17:21;;;;;;;0.60;0.60;;;13.80;71.00;;;;;;5099098;28;20036;-70
2023/12/17 06:19:46;;;;;;;0.75;0.75;;;13.80;71.10;;;;;;5098600;28;20503;-69
2023/12/17 06:22:15;;;;;;;0.63;0.63;;;13.80;71.00;;;;;;5097479;28;20036;-69
2023/12/17 06:24:41;;;;;;;0.80;0.80;;;13.90;70.90;;;;;;5099413;28;20020;-70
2023/12/17 06:27:13;;;;;;;0.80;0.70;;;13.90;71.00;;;;;;5099455;28;20086;-71
2023/12/17 06:29:38;;;;;;;1.50;0.85;;;13.90;70.60;;;;;;5111314;28;20042;-71
2023/12/17 06:32:04;;;;;;;1.65;1.30;;;13.90;70.80;;;;;;5117883;28;20421;-71
2023/12/17 06:34:29;;;;;;;0.52;0.52;;;13.80;70.80;;;;;;5118422;28;20019;-71
2023/12/17 06:36:55;;;;;;;0.95;0.57;;;13.80;71.10;;;;;;5118125;28;20047;-70
2023/12/17 06:39:20;;;;;;;1.58;1.48;;;13.90;70.90;;;;;;5117622;28;20081;-69
2023/12/17 06:41:47;;;;;;;0.60;0.60;;;13.90;70.80;;;;;;5118615;28;20043;-71
2023/12/17 06:44:12;;;;;;;1.13;1.08;;;13.90;70.50;;;;;;5100301;28;20024;-72
2023/12/17 06:46:38;;;;;;;0.63;0.63;;;13.90;70.50;;;;;;5106233;28;20043;-69
2023/12/17 06:49:03;;;;;;;0.47;0.47;;;13.80;70.70;;;;;;5097719;28;20042;-70
2023/12/17 06:51:29;;;;;;;1.63;1.00;;;13.80;70.60;;;;;;5097372;28;20036;-70
2023/12/17 06:53:54;;;;;;;0.90;0.90;;;13.80;70.50;;;;;;5098167;28;20433;-69
2023/12/17 06:56:19;;;;;;;0.60;0.60;;;13.80;70.60;;;;;;5097697;28;20028;-69
2023/12/17 06:58:45;;;;;;;1.45;0.85;;;13.80;70.50;;;;;;5107901;28;20100;-69
2023/12/17 07:01:14;;;;;;;1.00;1.00;;;13.80;70.50;;;;;;5097525;28;20034;-70
2023/12/17 07:03:39;;;;;;;0.68;0.68;;;13.80;70.60;;;;;;5097950;28;20020;-69
2023/12/17 07:06:09;;;;;;;1.73;1.58;;;13.80;70.60;;;;;;5078482;28;20039;-69
2023/12/17 07:08:35;;;;;;;0.57;0.57;;;13.80;70.80;;;;;;5109856;28;20024;-70
2023/12/17 07:11:00;;;;;;;1.35;1.30;;;13.80;70.70;;;;;;5081549;28;20039;-71
2023/12/17 07:13:25;;;;;;;0.60;0.60;;;13.90;70.70;;;;;;5077358;28;20027;-70
2023/12/17 07:15:51;;;;;;;1.00;1.00;;;13.80;70.50;;;;;;5091759;28;20119;-69
2023/12/17 07:18:16;;;;;;;3.90;1.20;;;13.80;70.60;;;;;;5098449;28;20039;-69
2023/12/17 07:20:43;;;;;;;5.50;1.60;;;13.90;70.30;;;;;;5095135;28;20039;-70
2023/12/17 07:23:09;;;;;;;1.27;1.17;;;13.80;70.30;;;;;;5096779;28;20082;-69
2023/12/17 07:25:34;;;;;;;1.00;1.00;;;13.80;70.50;;;;;;5096716;28;20040;-69
2023/12/17 07:27:59;;;;;;;0.63;0.63;;;13.80;70.80;;;;;;5095968;28;20043;-69
2023/12/17 07:30:25;;;;;;;1.27;1.17;;;13.80;70.70;;;;;;5096400;28;20077;-69
2023/12/17 07:32:51;;;;;;;0.82;0.82;;;13.90;70.50;;;;;;5096717;28;20119;-70
2023/12/17 07:35:16;;;;;;;0.60;0.60;;;13.80;70.40;;;;;;5096726;28;20539;-70
2023/12/17 07:37:42;;;;;;;0.60;0.60;;;13.80;70.30;;;;;;5096674;28;20020;-70
2023/12/17 07:40:08;;;;;;;1.27;1.17;;;13.90;70.30;;;;;;5096354;28;20026;-69
2023/12/17 07:42:33;;;;;;;1.30;1.20;;;13.80;70.20;;;;;;5097080;28;20472;-70
2023/12/17 07:44:59;;;;;;;1.30;1.20;;;13.80;70.30;;;;;;5096488;28;20030;-70
2023/12/17 07:47:26;;;;;;;1.95;1.45;;;13.90;69.80;;;;;;5096910;28;20035;-70
2023/12/17 07:49:51;;;;;;;1.17;1.08;;;13.80;69.90;;;;;;5096842;28;20024;-70
2023/12/17 07:52:17;;;;;;;1.52;1.42;;;13.80;69.90;;;;;;5096975;28;20477;-70
2023/12/17 07:54:42;;;;;;;1.02;1.02;;;13.80;70.00;;;;;;5099531;28;20075;-70
2023/12/17 07:57:08;;;;;;;0.80;0.80;;;13.80;70.20;;;;;;5088207;28;20070;-70
2023/12/17 07:59:33;;;;;;;0.95;0.95;;;13.80;70.10;;;;;;5077604;28;20044;-69
2023/12/17 08:01:59;;;;;;;1.15;1.08;;;13.80;70.00;;;;;;5081688;28;20028;-69
2023/12/17 08:04:24;;;;;;;1.75;1.30;;;13.80;70.10;;;;;;5097453;28;20032;-70
2023/12/17 08:06:50;;;;;;;0.50;0.50;;;13.80;69.80;;;;;;5092570;28;20039;-70
2023/12/17 08:09:16;;;;;;;1.25;1.17;;;13.80;70.00;;;;;;5088340;28;20024;-70
2023/12/17 08:11:43;;;;;;;1.85;1.73;;;13.80;69.90;;;;;;5078865;28;20044;-70
2023/12/17 08:14:09;;;;;;;1.38;1.27;;;13.80;69.50;;;;;;5097495;28;20020;-70
2023/12/17 08:16:34;;;;;;;0.75;0.75;;;13.80;69.50;;;;;;5097346;28;20039;-70
2023/12/17 08:19:00;;;;;;;2.45;1.17;;;13.80;69.80;;;;;;5097152;28;20467;-70
2023/12/17 08:21:25;;;;;;;1.70;1.60;;;13.80;69.60;;;;;;5097356;28;20107;-70
2023/12/17 08:23:51;;;;;;;4.20;1.38;;;13.80;69.70;;;;;;5096847;28;20032;-71
2023/12/17 08:26:16;;;;;;;4.03;2.50;;;13.80;69.60;;;;;;5078880;28;20036;-70
2023/12/17 08:32:03;;;;;;;0.82;0.82;;;13.90;70.10;;;;;;5079895;28;20090;-70
2023/12/17 08:34:29;;;;;;;0.80;0.80;;;13.90;69.70;;;;;;5097599;28;20036;-70
2023/12/17 08:36:56;;;;;;;0.85;0.82;;;13.80;69.90;;;;;;5093961;28;20036;-70
2023/12/17 08:39:23;;;;;;;0.75;0.70;;;13.80;70.00;;;;;;5088133;28;20023;-71
2023/12/17 08:41:49;;;;;;;1.40;1.30;;;13.90;69.60;;;;;;5087061;28;20020;-70
2023/12/17 08:44:19;;;;;;;1.13;1.05;;;13.90;69.60;;;;;;5073104;28;20021;-69
2023/12/17 08:46:46;;;;;;;0.85;0.82;;;13.90;69.80;;;;;;5079791;28;20499;-69
2023/12/17 08:49:11;;;;;;;1.33;1.23;;;13.90;69.90;;;;;;5088599;28;20028;-70
2023/12/17 08:51:37;;;;;;;2.15;1.77;;;13.90;70.10;;;;;;5094517;28;20036;-70
2023/12/17 08:54:03;;;;;;;2.20;1.73;;;14.00;69.80;;;;;;5077887;28;20096;-70
2023/12/17 08:56:29;;;;;;;1.25;1.20;;;13.90;69.60;;;;;;5097585;28;20043;-71
2023/12/17 08:58:55;;;;;;;3.60;2.28;;;13.90;69.70;;;;;;5091775;28;20488;-70
2023/12/17 09:01:20;;;;;;;0.95;0.95;;;14.00;69.70;;;;;;5097032;28;20036;-70
2023/12/17 09:03:46;;;;;;;1.23;1.13;;;13.90;69.60;;;;;;5087165;28;20035;-70
2023/12/17 09:06:11;;;;;;;1.63;1.52;;;13.90;69.00;;;;;;5085673;28;20376;-70
2023/12/17 09:08:37;;;;;;;1.30;1.08;;;13.90;69.30;;;;;;5079309;28;20025;-70
2023/12/17 09:11:03;;;;;;;1.58;1.48;;;13.90;69.20;;;;;;5081984;28;20036;-70
2023/12/17 09:13:28;;;;;;;0.65;0.65;;;13.90;69.60;;;;;;5096995;28;20038;-70
2023/12/17 09:15:54;;;;;;;0.60;0.60;;;13.90;69.50;;;;;;5096884;28;20099;-70
2023/12/17 09:18:19;;;;;;;0.50;0.50;;;13.90;69.30;;;;;;5096739;28;20102;-70
2023/12/17 09:20:45;;;;;;;1.15;1.05;;;13.90;69.30;;;;;;5096918;28;20486;-69
2023/12/17 09:23:10;;;;;;;0.93;0.88;;;13.90;69.00;;;;;;5092209;28;20017;-70
2023/12/17 09:25:36;;;;;;;1.10;0.90;;;13.90;68.80;;;;;;5076499;28;20361;-70
2023/12/17 09:28:02;;;;;;;1.55;1.45;;;13.90;69.00;;;;;;5075099;28;20423;-67
2023/12/17 09:30:27;;;;;;;0.60;0.60;;;13.90;69.00;;;;;;5074706;28;20025;-67
2023/12/17 09:32:53;;;;;;;1.13;1.10;;;13.90;68.90;;;;;;5074529;28;20036;-67
2023/12/17 09:35:21;;;;;;;1.90;1.23;;;14.00;69.30;;;;;;5056415;28;20063;-67
2023/12/17 09:37:47;;;;;;;0.63;0.63;;;14.00;69.50;;;;;;5074248;28;20495;-68
2023/12/17 09:40:14;;;;;;;1.45;1.35;;;14.00;69.50;;;;;;5074581;28;20044;-67
2023/12/17 09:42:43;;;;;;;2.05;1.95;;;14.00;69.80;;;;;;5074442;28;20028;-68
2023/12/17 09:45:14;;;;;;;0.88;0.88;;;14.10;69.20;;;;;;5074436;28;20024;-67
2023/12/17 09:47:41;;;;;;;0.63;0.63;;;14.10;69.20;;;;;;5074807;28;20033;-67
2023/12/17 09:50:08;;;;;;;1.50;1.40;;;14.10;69.30;;;;;;5074275;28;20029;-68
2023/12/17 09:52:39;;;;;;;0.60;0.60;;;14.20;68.60;;;;;;5074609;28;20486;-67
2023/12/17 09:55:05;;;;;;;1.65;1.25;;;14.10;68.00;;;;;;5074253;28;20036;-68
2023/12/17 09:57:30;;;;;;;0.95;0.95;;;14.10;68.70;;;;;;5074067;28;20527;-67
2023/12/17 09:59:56;;;;;;;2.10;1.88;;;14.20;68.90;;;;;;5080748;28;20031;-68
2023/12/17 10:02:21;;;;;;;0.75;0.75;;;14.20;67.90;;;;;;5094704;28;20035;-67
2023/12/17 10:04:47;;;;;;;0.40;0.40;;;14.20;67.80;;;;;;5094505;28;20075;-67
2023/12/17 10:07:12;;;;;;;1.25;1.15;;;14.20;68.20;;;;;;5094369;28;20020;-67
2023/12/17 10:09:38;;;;;;;1.13;1.10;;;14.20;67.90;;;;;;5075568;28;20348;-67
2023/12/17 10:12:04;;;;;;;0.80;0.80;;;14.30;67.90;;;;;;5091403;28;20067;-67
2023/12/17 10:14:30;;;;;;;1.48;1.38;;;14.30;67.10;;;;;;5091845;28;20522;-67
2023/12/17 10:16:57;;;;;;;0.95;0.95;;;14.20;67.00;;;;;;5091360;28;20029;-67
2023/12/17 10:19:23;;;;;;;0.40;0.40;;;14.30;67.00;;;;;;5092777;28;20028;-68
2023/12/17 10:21:48;;;;;;;0.80;0.80;;;14.30;66.90;;;;;;5075995;28;20048;-68
2023/12/17 10:24:14;;;;;;;2.08;1.67;;;14.30;67.40;;;;;;5085146;28;20036;-68
2023/12/17 10:26:50;;;;;;;0.50;0.50;;;14.30;67.20;;;;;;5088635;28;20536;-68
2023/12/17 10:29:18;;;;;;;0.50;0.50;;;14.30;67.40;;;;;;5073455;28;20017;-68
2023/12/17 10:31:44;;;;;;;0.60;0.60;;;14.40;67.50;;;;;;5065571;28;20032;-68
2023/12/17 10:34:18;;;;;;;0.77;0.77;;;14.40;67.70;;;;;;5078602;28;20048;-67
2023/12/17 10:36:46;;;;;;;0.50;0.50;;;14.50;66.80;;;;;;5075075;28;20120;-68
2023/12/17 10:39:14;;;;;;;0.68;0.68;;;14.40;66.70;;;;;;5086795;28;20040;-67
2023/12/17 10:41:41;;;;;;;0.50;0.50;;;14.50;67.20;;;;;;5089577;28;20028;-68
2023/12/17 10:44:12;;;;;;;0.70;0.70;;;14.50;67.40;;;;;;5085628;28;20055;-68
2023/12/17 10:46:42;;;;;;;0.50;0.50;;;14.50;67.60;;;;;;5089662;28;20028;-67
2023/12/17 10:49:27;;;;;;;0.57;0.57;;;14.50;66.70;;;;;;5079609;28;20090;-67
2023/12/17 10:51:53;;;;;;;0.80;0.80;;;14.50;67.40;;;;;;5081185;28;20321;-67
2023/12/17 10:54:19;;;;;;;0.47;0.47;;;14.50;67.50;;;;;;5078430;28;20024;-67
2023/12/17 10:56:47;;;;;;;0.80;0.80;;;14.50;66.40;;;;;;5074795;28;20082;-68
2023/12/17 10:59:21;;;;;;;0.57;0.57;;;14.40;66.40;;;;;;5086015;28;20028;-67
2023/12/17 11:01:48;;;;;;;0.60;0.60;;;14.50;66.50;;;;;;5078112;28;20075;-67
2023/12/17 11:04:14;;;;;;;0.50;0.50;;;14.50;66.40;;;;;;5068652;28;20024;-68
2023/12/17 11:06:39;;;;;;;0.77;0.77;;;14.50;66.30;;;;;;5057714;28;20391;-68
2023/12/17 11:09:05;;;;;;;0.77;0.77;;;14.50;65.70;;;;;;5086881;28;20043;-67
2023/12/17 11:11:32;;;;;;;0.50;0.50;;;14.40;66.60;;;;;;5080933;28;20047;-68
2023/12/17 11:13:58;;;;;;;0.50;0.50;;;14.40;66.60;;;;;;5085946;28;20395;-69
2023/12/17 11:16:25;;;;;;;0.55;0.55;;;14.50;66.20;;;;;;5088381;28;20475;-70
2023/12/17 11:18:51;;;;;;;0.40;0.40;;;14.50;67.00;;;;;;5086050;28;20391;-70
2023/12/17 11:21:17;;;;;;;0.40;0.40;;;14.50;66.40;;;;;;5084599;28;20020;-70
2023/12/17 11:23:46;;;;;;;0.50;0.50;;;14.50;66.70;;;;;;5088335;28;20036;-70
2023/12/17 11:26:12;;;;;;;0.57;0.57;;;14.50;67.10;;;;;;5093784;28;20053;-70
2023/12/17 11:28:38;;;;;;;0.90;0.88;;;14.60;67.10;;;;;;5093688;28;20038;-70
2023/12/17 11:31:04;;;;;;;0.60;0.60;;;14.60;66.40;;;;;;5084483;28;20039;-70
2023/12/17 11:33:31;;;;;;;0.60;0.60;;;14.50;65.70;;;;;;5089851;28;20020;-70
2023/12/17 11:35:58;;;;;;;0.73;0.73;;;14.50;65.60;;;;;;5082872;28;20443;-70
2023/12/17 11:38:24;;;;;;;0.75;0.75;;;14.50;65.30;;;;;;5076268;28;20418;-72
2023/12/17 11:40:50;;;;;;;0.50;0.50;;;14.40;64.20;;;;;;5071655;28;20535;-70
2023/12/17 11:43:16;;;;;;;0.50;0.50;;;14.30;65.40;;;;;;5091134;28;20040;-70
2023/12/17 11:45:44;;;;;;;0.40;0.40;;;14.30;65.40;;;;;;5089103;28;20047;-71
2023/12/17 11:48:15;;;;;;;0.50;0.50;;;14.40;64.30;;;;;;5092554;28;20035;-71
2023/12/17 11:50:46;;;;;;;0.60;0.60;;;14.30;64.20;;;;;;5090851;28;20025;-70
2023/12/17 11:53:13;;;;;;;0.45;0.45;;;14.20;64.60;;;;;;5087083;28;20057;-70
2023/12/17 11:55:56;;;;;;;0.50;0.50;;;14.20;65.30;;;;;;5083396;28;20063;-70
2023/12/17 11:58:23;;;;;;;0.50;0.50;;;14.30;65.40;;;;;;5086002;28;20036;-70
2023/12/17 12:01:06;;;;;;;0.50;0.50;;;14.30;65.50;;;;;;5081993;28;20457;-70
2023/12/17 12:03:32;;;;;;;1.10;1.08;;;14.30;65.80;;;;;;5090284;28;20024;-70
2023/12/17 12:06:11;;;;;;;0.77;0.77;;;14.30;65.60;;;;;;5095100;28;20039;-70
2023/12/17 12:08:48;;;;;;;0.52;0.52;;;14.40;66.60;;;;;;5094355;28;20032;-70
2023/12/17 12:11:18;;;;;;;1.20;1.13;;;14.50;67.60;;;;;;5084366;28;20034;-70
2023/12/17 12:13:48;;;;;;;0.85;0.85;;;14.60;67.20;;;;;;5084656;28;20214;-70
2023/12/17 12:16:14;;;;;;;0.52;0.52;;;14.70;67.30;;;;;;5081915;28;20024;-71
2023/12/17 12:18:40;;;;;;;0.52;0.52;;;14.70;66.90;;;;;;5082506;28;20051;-70
2023/12/17 12:21:20;;;;;;;0.75;0.75;;;14.80;65.40;;;;;;5083733;28;20021;-70
2023/12/17 12:23:50;;;;;;;0.90;0.90;;;14.80;66.60;;;;;;5081641;28;20021;-70
2023/12/17 12:26:17;;;;;;;;;;;14.80;66.40;;;;;;5087459;28;20016;-70
2023/12/17 12:28:46;;;;;;;0.80;0.80;;;14.80;65.90;;;;;;5080854;28;20362;-69
2023/12/17 12:31:11;;;;;;;0.65;0.65;;;14.80;66.00;;;;;;5076246;28;20455;-69
2023/12/17 12:33:37;;;;;;;0.50;0.50;;;14.80;65.60;;;;;;5074490;28;20031;-69
2023/12/17 12:36:07;;;;;;;0.50;0.50;;;14.80;65.60;;;;;;5076944;28;20383;-70
2023/12/17 12:38:32;;;;;;;0.50;0.50;;;14.80;66.00;;;;;;5086392;28;20021;-69
2023/12/17 12:41:08;;;;;;;0.75;0.75;;;14.80;65.90;;;;;;5077147;28;20085;-69
2023/12/17 12:43:39;;;;;;;0.52;0.52;;;14.80;65.10;;;;;;5074460;28;20148;-69
2023/12/17 12:46:05;;;;;;;0.70;0.70;;;14.70;64.70;;;;;;5083957;28;20020;-69